CGC Terrapin — NUOA — position and weather

sailwx.info

Track history (hours):
 
Tides and Currents Weather Stations Pressure Air Temp Water Temp Dewpoint Dewpoint Depression Visibility Wind Speed Wind Dir Waves Ship Positions

CGC Terrapin

Last reported at 2018-Feb-05 20:23 UTC. Time now 2018-Feb-24 05:55 UTC.
Position N 48°21' W 122°56'.
Warning: this ship's position is 18 days out of date.

Length 26 m; draft 1.7 m.

Type: Law enforcement. MMSI: 366999651.

Date/timePositionNaut miles runAvg speedWind from/ knotsBaromVisibWave heightAir tempDewpointWater temp
2018-Feb-05 20:23N 48°21' W 122°56'1213.4
2018-Feb-05 19:30N 48°30' W 122°43'713.6
2018-Feb-05 18:59N 48°36' W 122°39'612.1
2018-Feb-05 18:30N 48°41' W 122°33'3 6.1
2018-Feb-05 17:59N 48°43' W 122°31'0 0.0
2018-Feb-05 16:04N 48°43' W 122°31'0 0.0
2018-Feb-05 15:40N 48°43' W 122°31'0 0.0
2018-Feb-05 15:28N 48°43' W 122°31'0 0.0
2018-Feb-05 14:11N 48°43' W 122°31'0 0.0
2018-Feb-05 13:59N 48°43' W 122°31'0 0.0
2018-Feb-05 13:29N 48°43' W 122°31'0 0.0
2018-Feb-05 12:59N 48°43' W 122°31'0 0.0
2018-Feb-05 09:34N 48°43' W 122°31'0 0.0
2018-Feb-05 09:22N 48°43' W 122°31'0 0.0
2018-Feb-04 22:09N 48°43' W 122°31'0 0.0
2018-Feb-04 22:00N 48°43' W 122°31'0 0.1
2018-Feb-04 21:30N 48°43' W 122°31'4 8.5
2018-Feb-04 21:00N 48°39' W 122°33'7 6.7
2018-Feb-04 20:00N 48°39' W 122°43'4 8.4
2018-Feb-04 19:31N 48°35' W 122°45'5 9.1
2018-Feb-04 19:00N 48°30' W 122°44'5 9.2
2018-Feb-04 18:30N 48°26' W 122°41'3010.1
2018-Feb-04 15:30N 47°59' W 122°20'714.3
2018-Feb-04 15:00N 47°52' W 122°23'713.2
2018-Feb-04 14:30N 47°46' W 122°25'815.1
2018-Feb-04 14:00N 47°38' W 122°27'510.6
2018-Feb-04 13:30N 47°34' W 122°30'2 4.1
2018-Feb-04 13:00N 47°32' W 122°32'0 0.0
2018-Feb-04 12:30N 47°32' W 122°32'0 0.0
2018-Feb-04 12:00N 47°32' W 122°32'0 0.1
2018-Feb-04 11:26N 47°32' W 122°32'0 0.0
2018-Feb-04 10:00N 47°32' W 122°32'0 0.0
2018-Feb-04 09:00N 47°32' W 122°32'0 0.0
2018-Feb-04 08:30N 47°32' W 122°32'0 0.1
2018-Feb-04 07:59N 47°32' W 122°32'0 0.1
2018-Feb-04 07:29N 47°32' W 122°32'0 0.0
2018-Feb-04 06:59N 47°32' W 122°32'0 0.0
2018-Feb-04 06:30N 47°32' W 122°32'0 0.0
2018-Feb-04 06:00N 47°32' W 122°32'0 0.0
2018-Feb-04 05:30N 47°32' W 122°32'0 0.0
2018-Feb-04 05:00N 47°32' W 122°32'0 0.0
2018-Feb-04 04:30N 47°32' W 122°32'0 0.0
2018-Feb-04 03:57N 47°32' W 122°32'0 0.1
2018-Feb-04 03:30N 47°32' W 122°32'3 5.5
2018-Feb-04 03:01N 47°30' W 122°29'5 9.8
2018-Feb-04 02:30N 47°26' W 122°32'5 9.9
2018-Feb-04 02:00N 47°21' W 122°32'4 9.1
2018-Feb-04 01:30N 47°18' W 122°27'2 4.6
2018-Feb-04 01:01N 47°15' W 122°26'0 0.0
2018-Feb-04 00:30N 47°15' W 122°26'0 0.0
2018-Feb-04 00:01N 47°15' W 122°26'0 0.0
2018-Feb-03 23:30N 47°15' W 122°26'3 6.2
2018-Feb-03 23:00N 47°18' W 122°27'3 5.6
2018-Feb-03 22:29N 47°20' W 122°24'3 6.3
2018-Feb-03 22:00N 47°19' W 122°28'0 0.2
2018-Feb-03 21:30N 47°19' W 122°29'0 0.3
2018-Feb-03 21:00N 47°19' W 122°29'1 1.2
2018-Feb-03 20:29N 47°19' W 122°30'2 3.6
2018-Feb-03 20:01N 47°20' W 122°28'2 1.4
2018-Feb-03 18:31N 47°20' W 122°25'2 3.1
2018-Feb-03 18:00N 47°21' W 122°23'2 4.7
2018-Feb-03 17:30N 47°20' W 122°26'3 6.2
2018-Feb-03 17:00N 47°18' W 122°30'  
Track history (hours):
 
Tides and Currents Weather Stations Pressure Air Temp Water Temp Dewpoint Dewpoint Depression Visibility Wind Speed Wind Dir Waves Ship Positions

CGC Terrapin

Last reported at 2018-Feb-05 20:23 UTC. Time now 2018-Feb-24 05:55 UTC.
Position N 48°21' W 122°56'.
Warning: this ship's position is 18 days out of date.

Length 26 m; draft 1.7 m.

Type: Law enforcement. MMSI: 366999651.

Date/timePositionNaut miles runAvg speedWind from/ knotsBaromVisibWave heightAir tempDewpointWater temp
2018-Feb-05 20:23N 48°21' W 122°56'1213.4
2018-Feb-05 19:30N 48°30' W 122°43'713.6
2018-Feb-05 18:59N 48°36' W 122°39'612.1
2018-Feb-05 18:30N 48°41' W 122°33'3 6.1
2018-Feb-05 17:59N 48°43' W 122°31'0 0.0
2018-Feb-05 16:04N 48°43' W 122°31'0 0.0
2018-Feb-05 15:40N 48°43' W 122°31'0 0.0
2018-Feb-05 15:28N 48°43' W 122°31'0 0.0
2018-Feb-05 14:11N 48°43' W 122°31'0 0.0
2018-Feb-05 13:59N 48°43' W 122°31'0 0.0
2018-Feb-05 13:29N 48°43' W 122°31'0 0.0
2018-Feb-05 12:59N 48°43' W 122°31'0 0.0
2018-Feb-05 09:34N 48°43' W 122°31'0 0.0
2018-Feb-05 09:22N 48°43' W 122°31'0 0.0
2018-Feb-04 22:09N 48°43' W 122°31'0 0.0
2018-Feb-04 22:00N 48°43' W 122°31'0 0.1
2018-Feb-04 21:30N 48°43' W 122°31'4 8.5
2018-Feb-04 21:00N 48°39' W 122°33'7 6.7
2018-Feb-04 20:00N 48°39' W 122°43'4 8.4
2018-Feb-04 19:31N 48°35' W 122°45'5 9.1
2018-Feb-04 19:00N 48°30' W 122°44'5 9.2
2018-Feb-04 18:30N 48°26' W 122°41'3010.1
2018-Feb-04 15:30N 47°59' W 122°20'714.3
2018-Feb-04 15:00N 47°52' W 122°23'713.2
2018-Feb-04 14:30N 47°46' W 122°25'815.1
2018-Feb-04 14:00N 47°38' W 122°27'510.6
2018-Feb-04 13:30N 47°34' W 122°30'2 4.1
2018-Feb-04 13:00N 47°32' W 122°32'0 0.0
2018-Feb-04 12:30N 47°32' W 122°32'0 0.0
2018-Feb-04 12:00N 47°32' W 122°32'0 0.1
2018-Feb-04 11:26N 47°32' W 122°32'0 0.0
2018-Feb-04 10:00N 47°32' W 122°32'0 0.0
2018-Feb-04 09:00N 47°32' W 122°32'0 0.0
2018-Feb-04 08:30N 47°32' W 122°32'0 0.1
2018-Feb-04 07:59N 47°32' W 122°32'0 0.1
2018-Feb-04 07:29N 47°32' W 122°32'0 0.0
2018-Feb-04 06:59N 47°32' W 122°32'0 0.0
2018-Feb-04 06:30N 47°32' W 122°32'0 0.0
2018-Feb-04 06:00N 47°32' W 122°32'0 0.0
2018-Feb-04 05:30N 47°32' W 122°32'0 0.0
2018-Feb-04 05:00N 47°32' W 122°32'0 0.0
2018-Feb-04 04:30N 47°32' W 122°32'0 0.0
2018-Feb-04 03:57N 47°32' W 122°32'0 0.1
2018-Feb-04 03:30N 47°32' W 122°32'3 5.5
2018-Feb-04 03:01N 47°30' W 122°29'5 9.8
2018-Feb-04 02:30N 47°26' W 122°32'5 9.9
2018-Feb-04 02:00N 47°21' W 122°32'4 9.1
2018-Feb-04 01:30N 47°18' W 122°27'2 4.6
2018-Feb-04 01:01N 47°15' W 122°26'0 0.0
2018-Feb-04 00:30N 47°15' W 122°26'0 0.0
2018-Feb-04 00:01N 47°15' W 122°26'0 0.0
2018-Feb-03 23:30N 47°15' W 122°26'3 6.2
2018-Feb-03 23:00N 47°18' W 122°27'3 5.6
2018-Feb-03 22:29N 47°20' W 122°24'3 6.3
2018-Feb-03 22:00N 47°19' W 122°28'0 0.2
2018-Feb-03 21:30N 47°19' W 122°29'0 0.3
2018-Feb-03 21:00N 47°19' W 122°29'1 1.2
2018-Feb-03 20:29N 47°19' W 122°30'2 3.6
2018-Feb-03 20:01N 47°20' W 122°28'2 1.4
2018-Feb-03 18:31N 47°20' W 122°25'2 3.1
2018-Feb-03 18:00N 47°21' W 122°23'2 4.7
2018-Feb-03 17:30N 47°20' W 122°26'3 6.2
2018-Feb-03 17:00N 47°18' W 122°30'  

Dump ship's entire track history